sensor_id;sensor_type;location;lat;lon;timestamp;P1;durP1;ratioP1;P2;durP2;ratioP2
8893;SDS011;4483;48.622;9.230;2024-03-25T00:00:17;2.63;;;1.20;;
8893;SDS011;4483;48.622;9.230;2024-03-25T00:02:47;2.47;;;1.20;;
8893;SDS011;4483;48.622;9.230;2024-03-25T00:05:12;2.53;;;1.23;;
8893;SDS011;4483;48.622;9.230;2024-03-25T00:07:41;3.43;;;1.37;;
8893;SDS011;4483;48.622;9.230;2024-03-25T00:10:07;2.33;;;1.37;;
8893;SDS011;4483;48.622;9.230;2024-03-25T00:12:34;3.33;;;1.63;;
8893;SDS011;4483;48.622;9.230;2024-03-25T00:15:00;1.57;;;1.30;;
8893;SDS011;4483;48.622;9.230;2024-03-25T00:17:27;2.80;;;1.63;;
8893;SDS011;4483;48.622;9.230;2024-03-25T00:19:54;3.63;;;1.40;;
8893;SDS011;4483;48.622;9.230;2024-03-25T00:22:21;3.03;;;1.60;;
8893;SDS011;4483;48.622;9.230;2024-03-25T00:24:47;2.23;;;1.53;;
8893;SDS011;4483;48.622;9.230;2024-03-25T00:27:14;2.40;;;1.10;;
8893;SDS011;4483;48.622;9.230;2024-03-25T00:29:40;2.30;;;1.43;;
8893;SDS011;4483;48.622;9.230;2024-03-25T00:32:06;1.40;;;1.23;;
8893;SDS011;4483;48.622;9.230;2024-03-25T00:34:33;1.37;;;1.27;;
8893;SDS011;4483;48.622;9.230;2024-03-25T00:37:01;1.57;;;1.20;;
8893;SDS011;4483;48.622;9.230;2024-03-25T00:39:27;5.03;;;1.70;;
8893;SDS011;4483;48.622;9.230;2024-03-25T00:41:54;1.83;;;1.20;;
8893;SDS011;4483;48.622;9.230;2024-03-25T00:44:20;2.33;;;1.53;;
8893;SDS011;4483;48.622;9.230;2024-03-25T00:46:46;1.40;;;1.30;;
8893;SDS011;4483;48.622;9.230;2024-03-25T00:49:12;3.50;;;1.83;;
8893;SDS011;4483;48.622;9.230;2024-03-25T00:51:39;5.57;;;1.20;;
8893;SDS011;4483;48.622;9.230;2024-03-25T00:54:06;2.37;;;1.40;;
8893;SDS011;4483;48.622;9.230;2024-03-25T00:56:32;2.27;;;1.40;;
8893;SDS011;4483;48.622;9.230;2024-03-25T00:58:59;2.40;;;1.47;;
8893;SDS011;4483;48.622;9.230;2024-03-25T01:01:27;2.43;;;1.40;;
8893;SDS011;4483;48.622;9.230;2024-03-25T01:03:53;5.50;;;1.40;;
8893;SDS011;4483;48.622;9.230;2024-03-25T01:06:20;2.20;;;1.50;;
8893;SDS011;4483;48.622;9.230;2024-03-25T01:08:45;2.10;;;1.47;;
8893;SDS011;4483;48.622;9.230;2024-03-25T01:11:13;2.97;;;1.60;;
8893;SDS011;4483;48.622;9.230;2024-03-25T01:13:39;2.20;;;1.53;;
8893;SDS011;4483;48.622;9.230;2024-03-25T01:16:06;1.90;;;1.70;;
8893;SDS011;4483;48.622;9.230;2024-03-25T01:18:32;2.43;;;1.50;;
8893;SDS011;4483;48.622;9.230;2024-03-25T01:20:59;5.07;;;1.60;;
8893;SDS011;4483;48.622;9.230;2024-03-25T01:23:24;2.57;;;1.63;;
8893;SDS011;4483;48.622;9.230;2024-03-25T01:25:51;4.03;;;1.57;;
8893;SDS011;4483;48.622;9.230;2024-03-25T01:28:18;6.90;;;1.93;;
8893;SDS011;4483;48.622;9.230;2024-03-25T01:30:45;2.13;;;1.70;;
8893;SDS011;4483;48.622;9.230;2024-03-25T01:33:11;2.93;;;1.87;;
8893;SDS011;4483;48.622;9.230;2024-03-25T01:35:37;2.63;;;1.80;;
8893;SDS011;4483;48.622;9.230;2024-03-25T01:38:03;2.23;;;1.57;;
8893;SDS011;4483;48.622;9.230;2024-03-25T01:40:30;3.97;;;1.90;;
8893;SDS011;4483;48.622;9.230;2024-03-25T01:42:55;2.97;;;2.00;;
8893;SDS011;4483;48.622;9.230;2024-03-25T01:45:24;3.23;;;1.70;;
8893;SDS011;4483;48.622;9.230;2024-03-25T01:47:50;4.00;;;1.77;;
8893;SDS011;4483;48.622;9.230;2024-03-25T01:50:17;2.10;;;1.83;;
8893;SDS011;4483;48.622;9.230;2024-03-25T01:52:43;4.27;;;1.80;;
8893;SDS011;4483;48.622;9.230;2024-03-25T01:55:12;2.70;;;2.10;;
8893;SDS011;4483;48.622;9.230;2024-03-25T01:57:42;2.10;;;1.60;;
8893;SDS011;4483;48.622;9.230;2024-03-25T02:00:11;4.20;;;1.80;;
8893;SDS011;4483;48.622;9.230;2024-03-25T02:02:38;1.97;;;1.80;;
8893;SDS011;4483;48.622;9.230;2024-03-25T02:05:09;4.17;;;1.87;;
8893;SDS011;4483;48.622;9.230;2024-03-25T02:07:35;5.00;;;1.60;;
8893;SDS011;4483;48.622;9.230;2024-03-25T02:10:02;2.00;;;1.80;;
8893;SDS011;4483;48.622;9.230;2024-03-25T02:12:29;2.30;;;1.60;;
8893;SDS011;4483;48.622;9.230;2024-03-25T02:14:57;3.43;;;1.83;;
8893;SDS011;4483;48.622;9.230;2024-03-25T02:17:23;1.60;;;1.50;;
8893;SDS011;4483;48.622;9.230;2024-03-25T02:19:51;5.70;;;1.80;;
8893;SDS011;4483;48.622;9.230;2024-03-25T02:22:17;2.30;;;1.70;;
8893;SDS011;4483;48.622;9.230;2024-03-25T02:24:44;2.50;;;2.00;;
8893;SDS011;4483;48.622;9.230;2024-03-25T02:27:12;1.60;;;1.50;;
8893;SDS011;4483;48.622;9.230;2024-03-25T02:29:39;3.00;;;1.87;;
8893;SDS011;4483;48.622;9.230;2024-03-25T02:32:06;2.80;;;1.73;;
8893;SDS011;4483;48.622;9.230;2024-03-25T02:34:35;1.90;;;1.70;;
8893;SDS011;4483;48.622;9.230;2024-03-25T02:37:01;5.50;;;1.80;;
8893;SDS011;4483;48.622;9.230;2024-03-25T02:39:28;5.03;;;1.77;;
8893;SDS011;4483;48.622;9.230;2024-03-25T02:41:54;5.13;;;1.50;;
8893;SDS011;4483;48.622;9.230;2024-03-25T02:44:22;3.87;;;1.80;;
8893;SDS011;4483;48.622;9.230;2024-03-25T02:46:48;2.97;;;1.47;;
8893;SDS011;4483;48.622;9.230;2024-03-25T02:49:15;2.20;;;1.67;;
8893;SDS011;4483;48.622;9.230;2024-03-25T02:51:41;2.27;;;1.40;;
8893;SDS011;4483;48.622;9.230;2024-03-25T02:54:07;3.57;;;1.80;;
8893;SDS011;4483;48.622;9.230;2024-03-25T02:56:34;1.90;;;1.70;;
8893;SDS011;4483;48.622;9.230;2024-03-25T02:59:01;1.70;;;1.60;;
8893;SDS011;4483;48.622;9.230;2024-03-25T03:01:28;2.37;;;1.70;;
8893;SDS011;4483;48.622;9.230;2024-03-25T03:03:55;2.00;;;1.47;;
8893;SDS011;4483;48.622;9.230;2024-03-25T03:06:20;4.43;;;1.70;;
8893;SDS011;4483;48.622;9.230;2024-03-25T03:08:47;2.00;;;1.53;;
8893;SDS011;4483;48.622;9.230;2024-03-25T03:11:13;4.63;;;2.27;;
8893;SDS011;4483;48.622;9.230;2024-03-25T03:13:40;1.67;;;1.57;;
8893;SDS011;4483;48.622;9.230;2024-03-25T03:16:05;1.77;;;1.67;;
8893;SDS011;4483;48.622;9.230;2024-03-25T03:18:34;2.80;;;1.27;;
8893;SDS011;4483;48.622;9.230;2024-03-25T03:20:59;2.20;;;1.70;;
8893;SDS011;4483;48.622;9.230;2024-03-25T03:23:26;2.57;;;1.67;;
8893;SDS011;4483;48.622;9.230;2024-03-25T03:25:52;2.40;;;1.53;;
8893;SDS011;4483;48.622;9.230;2024-03-25T03:28:18;1.57;;;1.43;;
8893;SDS011;4483;48.622;9.230;2024-03-25T03:30:44;2.83;;;1.77;;
8893;SDS011;4483;48.622;9.230;2024-03-25T03:33:11;1.87;;;1.53;;
8893;SDS011;4483;48.622;9.230;2024-03-25T03:35:38;3.23;;;1.80;;
8893;SDS011;4483;48.622;9.230;2024-03-25T03:38:04;3.90;;;1.80;;
8893;SDS011;4483;48.622;9.230;2024-03-25T03:40:31;1.70;;;1.60;;
8893;SDS011;4483;48.622;9.230;2024-03-25T03:42:58;1.70;;;1.60;;
8893;SDS011;4483;48.622;9.230;2024-03-25T03:45:24;1.73;;;1.57;;
8893;SDS011;4483;48.622;9.230;2024-03-25T03:47:51;1.70;;;1.57;;
8893;SDS011;4483;48.622;9.230;2024-03-25T03:50:17;1.60;;;1.50;;
8893;SDS011;4483;48.622;9.230;2024-03-25T03:52:45;3.77;;;1.80;;
8893;SDS011;4483;48.622;9.230;2024-03-25T03:55:10;3.50;;;1.97;;
8893;SDS011;4483;48.622;9.230;2024-03-25T03:57:37;4.47;;;1.70;;
8893;SDS011;4483;48.622;9.230;2024-03-25T04:00:03;1.70;;;1.60;;
8893;SDS011;4483;48.622;9.230;2024-03-25T04:02:30;1.90;;;1.80;;
8893;SDS011;4483;48.622;9.230;2024-03-25T04:04:55;3.33;;;1.93;;
8893;SDS011;4483;48.622;9.230;2024-03-25T04:07:22;2.37;;;1.90;;
8893;SDS011;4483;48.622;9.230;2024-03-25T04:09:53;2.00;;;1.80;;
8893;SDS011;4483;48.622;9.230;2024-03-25T04:12:19;1.97;;;1.63;;
8893;SDS011;4483;48.622;9.230;2024-03-25T04:14:46;2.17;;;1.70;;
8893;SDS011;4483;48.622;9.230;2024-03-25T04:17:14;3.00;;;1.83;;
8893;SDS011;4483;48.622;9.230;2024-03-25T04:19:39;4.10;;;1.57;;
8893;SDS011;4483;48.622;9.230;2024-03-25T04:22:06;1.87;;;1.73;;
8893;SDS011;4483;48.622;9.230;2024-03-25T04:24:32;2.80;;;1.70;;
8893;SDS011;4483;48.622;9.230;2024-03-25T04:27:01;7.47;;;1.77;;
8893;SDS011;4483;48.622;9.230;2024-03-25T04:29:26;3.83;;;1.63;;
8893;SDS011;4483;48.622;9.230;2024-03-25T04:31:54;2.60;;;1.67;;
8893;SDS011;4483;48.622;9.230;2024-03-25T04:34:20;2.23;;;1.83;;
8893;SDS011;4483;48.622;9.230;2024-03-25T04:36:48;2.57;;;1.90;;
8893;SDS011;4483;48.622;9.230;2024-03-25T04:39:13;3.47;;;1.90;;
8893;SDS011;4483;48.622;9.230;2024-03-25T04:41:39;1.60;;;1.50;;
8893;SDS011;4483;48.622;9.230;2024-03-25T04:44:06;1.70;;;1.60;;
8893;SDS011;4483;48.622;9.230;2024-03-25T04:46:32;2.87;;;1.70;;
8893;SDS011;4483;48.622;9.230;2024-03-25T04:48:58;2.50;;;1.60;;
8893;SDS011;4483;48.622;9.230;2024-03-25T04:51:23;3.80;;;1.63;;
8893;SDS011;4483;48.622;9.230;2024-03-25T04:53:49;2.30;;;1.70;;
8893;SDS011;4483;48.622;9.230;2024-03-25T04:56:15;3.70;;;1.90;;
8893;SDS011;4483;48.622;9.230;2024-03-25T04:58:40;1.50;;;1.40;;
8893;SDS011;4483;48.622;9.230;2024-03-25T05:01:07;3.77;;;1.77;;
8893;SDS011;4483;48.622;9.230;2024-03-25T05:03:33;2.87;;;1.70;;
8893;SDS011;4483;48.622;9.230;2024-03-25T05:05:59;4.20;;;1.97;;
8893;SDS011;4483;48.622;9.230;2024-03-25T05:08:24;2.47;;;1.80;;
8893;SDS011;4483;48.622;9.230;2024-03-25T05:10:50;3.33;;;1.70;;
8893;SDS011;4483;48.622;9.230;2024-03-25T05:13:16;2.50;;;1.47;;
8893;SDS011;4483;48.622;9.230;2024-03-25T05:15:48;4.23;;;1.70;;
8893;SDS011;4483;48.622;9.230;2024-03-25T05:18:16;6.03;;;1.83;;
8893;SDS011;4483;48.622;9.230;2024-03-25T05:20:42;1.60;;;1.50;;
8893;SDS011;4483;48.622;9.230;2024-03-25T05:23:07;7.07;;;1.60;;
8893;SDS011;4483;48.622;9.230;2024-03-25T05:25:34;3.30;;;1.80;;
8893;SDS011;4483;48.622;9.230;2024-03-25T05:27:59;3.50;;;1.60;;
8893;SDS011;4483;48.622;9.230;2024-03-25T05:30:25;4.73;;;1.70;;
8893;SDS011;4483;48.622;9.230;2024-03-25T05:32:51;4.97;;;2.00;;
8893;SDS011;4483;48.622;9.230;2024-03-25T05:35:18;3.53;;;1.63;;
8893;SDS011;4483;48.622;9.230;2024-03-25T05:37:44;2.83;;;1.60;;
8893;SDS011;4483;48.622;9.230;2024-03-25T05:40:10;2.07;;;1.53;;
8893;SDS011;4483;48.622;9.230;2024-03-25T05:42:36;3.17;;;1.60;;
8893;SDS011;4483;48.622;9.230;2024-03-25T05:45:02;2.40;;;1.83;;
8893;SDS011;4483;48.622;9.230;2024-03-25T05:47:28;2.40;;;1.97;;
8893;SDS011;4483;48.622;9.230;2024-03-25T05:49:54;2.10;;;1.90;;
8893;SDS011;4483;48.622;9.230;2024-03-25T05:52:21;3.20;;;1.70;;
8893;SDS011;4483;48.622;9.230;2024-03-25T05:54:47;2.70;;;1.40;;
8893;SDS011;4483;48.622;9.230;2024-03-25T05:57:13;2.97;;;1.83;;
8893;SDS011;4483;48.622;9.230;2024-03-25T05:59:38;6.57;;;3.57;;
8893;SDS011;4483;48.622;9.230;2024-03-25T06:02:04;3.93;;;2.53;;
8893;SDS011;4483;48.622;9.230;2024-03-25T06:04:30;4.17;;;2.30;;
8893;SDS011;4483;48.622;9.230;2024-03-25T06:06:55;1.93;;;1.80;;
8893;SDS011;4483;48.622;9.230;2024-03-25T06:09:22;2.67;;;1.70;;
8893;SDS011;4483;48.622;9.230;2024-03-25T06:11:48;2.43;;;1.80;;
8893;SDS011;4483;48.622;9.230;2024-03-25T06:14:14;5.70;;;2.30;;
8893;SDS011;4483;48.622;9.230;2024-03-25T06:16:39;4.10;;;2.20;;
8893;SDS011;4483;48.622;9.230;2024-03-25T06:19:05;2.87;;;1.70;;
8893;SDS011;4483;48.622;9.230;2024-03-25T06:21:31;3.00;;;2.17;;
8893;SDS011;4483;48.622;9.230;2024-03-25T06:23:57;1.73;;;1.63;;
8893;SDS011;4483;48.622;9.230;2024-03-25T06:26:24;3.27;;;1.73;;
8893;SDS011;4483;48.622;9.230;2024-03-25T06:28:50;3.00;;;1.90;;
8893;SDS011;4483;48.622;9.230;2024-03-25T06:31:15;2.63;;;1.93;;
8893;SDS011;4483;48.622;9.230;2024-03-25T06:33:59;3.73;;;2.30;;
8893;SDS011;4483;48.622;9.230;2024-03-25T06:36:40;1.93;;;1.80;;
8893;SDS011;4483;48.622;9.230;2024-03-25T06:39:06;3.37;;;2.10;;
8893;SDS011;4483;48.622;9.230;2024-03-25T06:41:35;7.13;;;1.70;;
8893;SDS011;4483;48.622;9.230;2024-03-25T06:44:01;4.87;;;1.83;;
8893;SDS011;4483;48.622;9.230;2024-03-25T06:46:27;1.73;;;1.57;;
8893;SDS011;4483;48.622;9.230;2024-03-25T06:48:52;2.97;;;2.70;;
8893;SDS011;4483;48.622;9.230;2024-03-25T06:51:18;4.17;;;2.23;;
8893;SDS011;4483;48.622;9.230;2024-03-25T06:53:44;4.00;;;1.93;;
8893;SDS011;4483;48.622;9.230;2024-03-25T06:56:10;3.27;;;1.73;;
8893;SDS011;4483;48.622;9.230;2024-03-25T06:58:37;3.33;;;2.23;;
8893;SDS011;4483;48.622;9.230;2024-03-25T07:01:06;1.97;;;1.50;;
8893;SDS011;4483;48.622;9.230;2024-03-25T07:03:33;6.83;;;1.90;;
8893;SDS011;4483;48.622;9.230;2024-03-25T07:06:00;1.80;;;1.63;;
8893;SDS011;4483;48.622;9.230;2024-03-25T07:08:26;4.70;;;1.77;;
8893;SDS011;4483;48.622;9.230;2024-03-25T07:10:52;2.30;;;1.80;;
8893;SDS011;4483;48.622;9.230;2024-03-25T07:13:18;3.13;;;1.80;;
8893;SDS011;4483;48.622;9.230;2024-03-25T07:15:45;2.87;;;1.60;;
8893;SDS011;4483;48.622;9.230;2024-03-25T07:18:11;2.97;;;1.67;;
8893;SDS011;4483;48.622;9.230;2024-03-25T07:20:37;2.70;;;1.70;;
8893;SDS011;4483;48.622;9.230;2024-03-25T07:23:03;4.80;;;1.80;;
8893;SDS011;4483;48.622;9.230;2024-03-25T07:25:29;4.20;;;1.73;;
8893;SDS011;4483;48.622;9.230;2024-03-25T07:27:54;2.37;;;1.83;;
8893;SDS011;4483;48.622;9.230;2024-03-25T07:30:20;2.30;;;1.93;;
8893;SDS011;4483;48.622;9.230;2024-03-25T07:32:48;2.87;;;1.63;;
8893;SDS011;4483;48.622;9.230;2024-03-25T07:35:14;3.93;;;2.00;;
8893;SDS011;4483;48.622;9.230;2024-03-25T07:37:40;2.50;;;1.50;;
8893;SDS011;4483;48.622;9.230;2024-03-25T07:40:06;1.80;;;1.60;;
8893;SDS011;4483;48.622;9.230;2024-03-25T07:42:34;5.70;;;1.70;;
8893;SDS011;4483;48.622;9.230;2024-03-25T07:44:59;3.80;;;1.50;;
8893;SDS011;4483;48.622;9.230;2024-03-25T07:47:25;3.43;;;2.13;;
8893;SDS011;4483;48.622;9.230;2024-03-25T07:49:52;9.33;;;7.00;;
8893;SDS011;4483;48.622;9.230;2024-03-25T07:52:19;5.93;;;3.10;;
8893;SDS011;4483;48.622;9.230;2024-03-25T07:54:45;2.13;;;1.93;;
8893;SDS011;4483;48.622;9.230;2024-03-25T07:57:10;2.63;;;1.77;;
8893;SDS011;4483;48.622;9.230;2024-03-25T07:59:36;6.23;;;4.13;;
8893;SDS011;4483;48.622;9.230;2024-03-25T08:02:02;5.60;;;3.03;;
8893;SDS011;4483;48.622;9.230;2024-03-25T08:04:28;4.00;;;2.30;;
8893;SDS011;4483;48.622;9.230;2024-03-25T08:06:55;4.47;;;4.07;;
8893;SDS011;4483;48.622;9.230;2024-03-25T08:09:20;4.30;;;2.17;;
8893;SDS011;4483;48.622;9.230;2024-03-25T08:11:46;3.67;;;2.47;;
8893;SDS011;4483;48.622;9.230;2024-03-25T08:14:12;3.17;;;2.30;;
8893;SDS011;4483;48.622;9.230;2024-03-25T08:16:37;3.40;;;1.90;;
8893;SDS011;4483;48.622;9.230;2024-03-25T08:19:03;4.07;;;2.40;;
8893;SDS011;4483;48.622;9.230;2024-03-25T08:21:29;2.70;;;1.80;;
8893;SDS011;4483;48.622;9.230;2024-03-25T08:23:56;2.97;;;1.80;;
8893;SDS011;4483;48.622;9.230;2024-03-25T08:26:22;3.30;;;1.73;;
8893;SDS011;4483;48.622;9.230;2024-03-25T08:28:48;3.23;;;1.70;;
8893;SDS011;4483;48.622;9.230;2024-03-25T08:31:14;2.97;;;1.60;;
8893;SDS011;4483;48.622;9.230;2024-03-25T08:33:39;2.03;;;1.80;;
8893;SDS011;4483;48.622;9.230;2024-03-25T08:36:05;3.80;;;2.00;;
8893;SDS011;4483;48.622;9.230;2024-03-25T08:38:31;5.73;;;2.03;;
8893;SDS011;4483;48.622;9.230;2024-03-25T08:40:58;3.83;;;1.90;;
8893;SDS011;4483;48.622;9.230;2024-03-25T08:43:24;3.20;;;1.80;;
8893;SDS011;4483;48.622;9.230;2024-03-25T08:45:49;4.77;;;1.80;;
8893;SDS011;4483;48.622;9.230;2024-03-25T08:48:15;1.70;;;1.60;;
8893;SDS011;4483;48.622;9.230;2024-03-25T08:50:41;2.97;;;1.93;;
8893;SDS011;4483;48.622;9.230;2024-03-25T08:53:06;1.87;;;1.50;;
8893;SDS011;4483;48.622;9.230;2024-03-25T08:55:32;2.00;;;1.80;;
8893;SDS011;4483;48.622;9.230;2024-03-25T08:57:59;2.57;;;1.63;;
8893;SDS011;4483;48.622;9.230;2024-03-25T09:00:25;3.97;;;1.80;;
8893;SDS011;4483;48.622;9.230;2024-03-25T09:02:50;1.90;;;1.60;;
8893;SDS011;4483;48.622;9.230;2024-03-25T09:05:16;3.47;;;1.80;;
8893;SDS011;4483;48.622;9.230;2024-03-25T09:07:43;2.20;;;1.67;;
8893;SDS011;4483;48.622;9.230;2024-03-25T09:10:09;2.67;;;1.73;;
8893;SDS011;4483;48.622;9.230;2024-03-25T09:12:53;1.57;;;1.40;;
8893;SDS011;4483;48.622;9.230;2024-03-25T09:15:20;2.40;;;1.90;;
8893;SDS011;4483;48.622;9.230;2024-03-25T09:17:46;1.97;;;1.60;;
8893;SDS011;4483;48.622;9.230;2024-03-25T09:20:12;4.07;;;2.00;;
8893;SDS011;4483;48.622;9.230;2024-03-25T09:22:41;2.07;;;1.83;;
8893;SDS011;4483;48.622;9.230;2024-03-25T09:25:07;2.53;;;1.80;;
8893;SDS011;4483;48.622;9.230;2024-03-25T09:27:33;5.13;;;2.27;;
8893;SDS011;4483;48.622;9.230;2024-03-25T09:29:58;2.37;;;1.90;;
8893;SDS011;4483;48.622;9.230;2024-03-25T09:32:25;3.87;;;2.07;;
8893;SDS011;4483;48.622;9.230;2024-03-25T09:34:51;2.40;;;1.60;;
8893;SDS011;4483;48.622;9.230;2024-03-25T09:37:17;5.57;;;1.90;;
8893;SDS011;4483;48.622;9.230;2024-03-25T09:39:43;3.30;;;1.77;;
8893;SDS011;4483;48.622;9.230;2024-03-25T09:42:08;2.53;;;1.90;;
8893;SDS011;4483;48.622;9.230;2024-03-25T09:44:40;3.83;;;2.20;;
8893;SDS011;4483;48.622;9.230;2024-03-25T09:47:05;4.13;;;1.80;;
8893;SDS011;4483;48.622;9.230;2024-03-25T09:49:33;3.70;;;1.67;;
8893;SDS011;4483;48.622;9.230;2024-03-25T09:52:02;3.17;;;2.30;;
8893;SDS011;4483;48.622;9.230;2024-03-25T09:54:27;3.37;;;2.00;;
8893;SDS011;4483;48.622;9.230;2024-03-25T09:56:53;3.67;;;2.00;;
8893;SDS011;4483;48.622;9.230;2024-03-25T09:59:20;1.90;;;1.80;;
8893;SDS011;4483;48.622;9.230;2024-03-25T10:01:46;3.33;;;1.90;;
8893;SDS011;4483;48.622;9.230;2024-03-25T10:04:11;3.90;;;2.20;;
8893;SDS011;4483;48.622;9.230;2024-03-25T10:06:40;3.47;;;2.30;;
8893;SDS011;4483;48.622;9.230;2024-03-25T10:09:05;10.57;;;5.97;;
8893;SDS011;4483;48.622;9.230;2024-03-25T10:11:31;19.37;;;11.20;;
8893;SDS011;4483;48.622;9.230;2024-03-25T10:13:57;18.63;;;9.13;;
8893;SDS011;4483;48.622;9.230;2024-03-25T10:16:23;9.10;;;4.40;;
8893;SDS011;4483;48.622;9.230;2024-03-25T10:18:49;2.97;;;1.93;;
8893;SDS011;4483;48.622;9.230;2024-03-25T10:21:14;3.80;;;2.10;;
8893;SDS011;4483;48.622;9.230;2024-03-25T10:23:45;4.43;;;1.90;;
8893;SDS011;4483;48.622;9.230;2024-03-25T10:26:23;4.87;;;1.80;;
8893;SDS011;4483;48.622;9.230;2024-03-25T10:28:58;1.87;;;1.70;;
8893;SDS011;4483;48.622;9.230;2024-03-25T10:31:24;5.17;;;3.10;;
8893;SDS011;4483;48.622;9.230;2024-03-25T10:33:50;3.40;;;1.90;;
8893;SDS011;4483;48.622;9.230;2024-03-25T10:36:16;3.47;;;1.80;;
8893;SDS011;4483;48.622;9.230;2024-03-25T10:38:42;2.80;;;1.80;;
8893;SDS011;4483;48.622;9.230;2024-03-25T10:41:11;4.63;;;2.30;;
8893;SDS011;4483;48.622;9.230;2024-03-25T10:43:38;3.00;;;2.10;;
8893;SDS011;4483;48.622;9.230;2024-03-25T10:46:05;2.17;;;1.73;;
8893;SDS011;4483;48.622;9.230;2024-03-25T10:48:31;5.13;;;2.27;;
8893;SDS011;4483;48.622;9.230;2024-03-25T10:51:02;6.87;;;2.00;;
8893;SDS011;4483;48.622;9.230;2024-03-25T10:53:30;4.23;;;2.00;;
8893;SDS011;4483;48.622;9.230;2024-03-25T10:56:00;3.27;;;1.90;;
8893;SDS011;4483;48.622;9.230;2024-03-25T10:58:28;3.90;;;1.50;;
8893;SDS011;4483;48.622;9.230;2024-03-25T11:00:54;3.53;;;2.03;;
8893;SDS011;4483;48.622;9.230;2024-03-25T11:03:21;3.40;;;2.00;;
8893;SDS011;4483;48.622;9.230;2024-03-25T11:05:47;3.10;;;1.60;;
8893;SDS011;4483;48.622;9.230;2024-03-25T11:08:13;1.90;;;1.60;;
8893;SDS011;4483;48.622;9.230;2024-03-25T11:10:40;4.50;;;1.77;;
8893;SDS011;4483;48.622;9.230;2024-03-25T11:13:10;1.90;;;1.60;;
8893;SDS011;4483;48.622;9.230;2024-03-25T11:15:37;1.70;;;1.60;;
8893;SDS011;4483;48.622;9.230;2024-03-25T11:18:10;2.17;;;1.70;;
8893;SDS011;4483;48.622;9.230;2024-03-25T11:20:36;1.50;;;1.40;;
8893;SDS011;4483;48.622;9.230;2024-03-25T11:23:07;1.50;;;1.40;;
8893;SDS011;4483;48.622;9.230;2024-03-25T11:25:34;2.33;;;1.70;;
8893;SDS011;4483;48.622;9.230;2024-03-25T11:28:00;2.53;;;1.80;;
8893;SDS011;4483;48.622;9.230;2024-03-25T11:30:25;3.93;;;1.80;;
8893;SDS011;4483;48.622;9.230;2024-03-25T11:32:53;1.80;;;1.67;;
8893;SDS011;4483;48.622;9.230;2024-03-25T11:35:20;3.57;;;2.07;;
8893;SDS011;4483;48.622;9.230;2024-03-25T11:37:46;3.93;;;2.20;;
8893;SDS011;4483;48.622;9.230;2024-03-25T11:40:13;2.93;;;1.77;;
8893;SDS011;4483;48.622;9.230;2024-03-25T11:42:39;3.70;;;2.00;;
8893;SDS011;4483;48.622;9.230;2024-03-25T11:45:06;2.83;;;2.00;;
8893;SDS011;4483;48.622;9.230;2024-03-25T11:47:33;1.95;;;1.63;;
8893;SDS011;4483;48.622;9.230;2024-03-25T11:50:00;1.80;;;1.70;;
8893;SDS011;4483;48.622;9.230;2024-03-25T11:52:33;1.92;;;1.60;;
8893;SDS011;4483;48.622;9.230;2024-03-25T11:54:58;2.78;;;1.30;;
8893;SDS011;4483;48.622;9.230;2024-03-25T11:57:24;3.72;;;1.95;;
8893;SDS011;4483;48.622;9.230;2024-03-25T11:59:50;1.52;;;1.40;;
8893;SDS011;4483;48.622;9.230;2024-03-25T12:02:16;4.82;;;1.90;;
8893;SDS011;4483;48.622;9.230;2024-03-25T12:04:42;1.48;;;1.38;;
8893;SDS011;4483;48.622;9.230;2024-03-25T12:07:11;1.88;;;1.40;;
8893;SDS011;4483;48.622;9.230;2024-03-25T12:09:37;1.52;;;1.42;;
8893;SDS011;4483;48.622;9.230;2024-03-25T12:12:21;3.13;;;1.60;;
8893;SDS011;4483;48.622;9.230;2024-03-25T12:14:47;3.40;;;1.50;;
8893;SDS011;4483;48.622;9.230;2024-03-25T12:17:13;1.40;;;1.30;;
8893;SDS011;4483;48.622;9.230;2024-03-25T12:19:39;2.72;;;1.70;;
8893;SDS011;4483;48.622;9.230;2024-03-25T12:22:06;2.83;;;1.60;;
8893;SDS011;4483;48.622;9.230;2024-03-25T12:24:34;2.40;;;1.40;;
8893;SDS011;4483;48.622;9.230;2024-03-25T12:27:00;3.55;;;1.50;;
8893;SDS011;4483;48.622;9.230;2024-03-25T12:29:26;2.47;;;1.65;;
8893;SDS011;4483;48.622;9.230;2024-03-25T12:31:54;1.98;;;1.83;;
8893;SDS011;4483;48.622;9.230;2024-03-25T12:34:20;2.58;;;1.70;;
8893;SDS011;4483;48.622;9.230;2024-03-25T12:36:46;2.92;;;2.05;;
8893;SDS011;4483;48.622;9.230;2024-03-25T12:39:15;2.15;;;1.95;;
8893;SDS011;4483;48.622;9.230;2024-03-25T12:41:42;1.83;;;1.58;;
8893;SDS011;4483;48.622;9.230;2024-03-25T12:44:08;1.83;;;1.63;;
8893;SDS011;4483;48.622;9.230;2024-03-25T12:46:34;2.80;;;1.92;;
8893;SDS011;4483;48.622;9.230;2024-03-25T12:49:00;1.90;;;1.63;;
8893;SDS011;4483;48.622;9.230;2024-03-25T12:51:26;1.60;;;1.50;;
8893;SDS011;4483;48.622;9.230;2024-03-25T12:53:51;1.50;;;1.40;;
8893;SDS011;4483;48.622;9.230;2024-03-25T12:56:17;1.77;;;1.67;;
8893;SDS011;4483;48.622;9.230;2024-03-25T12:58:44;2.28;;;1.55;;
8893;SDS011;4483;48.622;9.230;2024-03-25T13:01:10;1.50;;;1.40;;
8893;SDS011;4483;48.622;9.230;2024-03-25T13:03:35;4.18;;;1.70;;
8893;SDS011;4483;48.622;9.230;2024-03-25T13:06:01;1.75;;;1.63;;
8893;SDS011;4483;48.622;9.230;2024-03-25T13:08:27;2.53;;;1.70;;
8893;SDS011;4483;48.622;9.230;2024-03-25T13:10:53;2.47;;;1.75;;
8893;SDS011;4483;48.622;9.230;2024-03-25T13:13:18;1.75;;;1.50;;
8893;SDS011;4483;48.622;9.230;2024-03-25T13:15:45;4.43;;;2.00;;
8893;SDS011;4483;48.622;9.230;2024-03-25T13:18:11;2.38;;;1.48;;
8893;SDS011;4483;48.622;9.230;2024-03-25T13:20:37;1.70;;;1.60;;
8893;SDS011;4483;48.622;9.230;2024-03-25T13:23:03;4.60;;;1.83;;
8893;SDS011;4483;48.622;9.230;2024-03-25T13:25:29;3.03;;;1.55;;
8893;SDS011;4483;48.622;9.230;2024-03-25T13:27:54;2.88;;;1.80;;
8893;SDS011;4483;48.622;9.230;2024-03-25T13:30:22;1.90;;;1.55;;
8893;SDS011;4483;48.622;9.230;2024-03-25T13:32:49;1.95;;;1.52;;
8893;SDS011;4483;48.622;9.230;2024-03-25T13:35:15;5.13;;;1.85;;
8893;SDS011;4483;48.622;9.230;2024-03-25T13:37:41;4.43;;;1.60;;
8893;SDS011;4483;48.622;9.230;2024-03-25T13:40:07;2.42;;;1.67;;
8893;SDS011;4483;48.622;9.230;2024-03-25T13:42:34;1.75;;;1.60;;
8893;SDS011;4483;48.622;9.230;2024-03-25T13:45:00;1.42;;;1.30;;
8893;SDS011;4483;48.622;9.230;2024-03-25T13:47:25;2.90;;;1.50;;
8893;SDS011;4483;48.622;9.230;2024-03-25T13:50:01;3.60;;;1.80;;
8893;SDS011;4483;48.622;9.230;2024-03-25T13:52:27;1.92;;;1.73;;
8893;SDS011;4483;48.622;9.230;2024-03-25T13:54:52;1.90;;;1.50;;
8893;SDS011;4483;48.622;9.230;2024-03-25T13:57:18;3.63;;;1.58;;
8893;SDS011;4483;48.622;9.230;2024-03-25T13:59:44;1.80;;;1.52;;
8893;SDS011;4483;48.622;9.230;2024-03-25T14:02:09;2.05;;;1.67;;
8893;SDS011;4483;48.622;9.230;2024-03-25T14:04:35;2.80;;;1.60;;
8893;SDS011;4483;48.622;9.230;2024-03-25T14:07:02;2.33;;;1.42;;
8893;SDS011;4483;48.622;9.230;2024-03-25T14:09:28;3.20;;;1.45;;
8893;SDS011;4483;48.622;9.230;2024-03-25T14:11:54;1.83;;;1.55;;
8893;SDS011;4483;48.622;9.230;2024-03-25T14:14:19;1.95;;;1.58;;
8893;SDS011;4483;48.622;9.230;2024-03-25T14:16:45;4.63;;;1.70;;
8893;SDS011;4483;48.622;9.230;2024-03-25T14:19:11;2.13;;;1.60;;
8893;SDS011;4483;48.622;9.230;2024-03-25T14:21:37;1.50;;;1.40;;
8893;SDS011;4483;48.622;9.230;2024-03-25T14:24:05;2.58;;;1.55;;
8893;SDS011;4483;48.622;9.230;2024-03-25T14:26:31;1.60;;;1.50;;
8893;SDS011;4483;48.622;9.230;2024-03-25T14:28:57;1.48;;;1.38;;
8893;SDS011;4483;48.622;9.230;2024-03-25T14:31:22;1.83;;;1.48;;
8893;SDS011;4483;48.622;9.230;2024-03-25T14:33:48;3.30;;;1.50;;
8893;SDS011;4483;48.622;9.230;2024-03-25T14:36:14;1.10;;;1.10;;
8893;SDS011;4483;48.622;9.230;2024-03-25T14:38:39;1.83;;;1.30;;
8893;SDS011;4483;48.622;9.230;2024-03-25T14:41:06;1.67;;;1.30;;
8893;SDS011;4483;48.622;9.230;2024-03-25T14:43:32;1.65;;;1.50;;
8893;SDS011;4483;48.622;9.230;2024-03-25T14:45:58;2.45;;;1.65;;
8893;SDS011;4483;48.622;9.230;2024-03-25T14:48:23;1.75;;;1.40;;
8893;SDS011;4483;48.622;9.230;2024-03-25T14:50:49;1.40;;;1.30;;
8893;SDS011;4483;48.622;9.230;2024-03-25T14:53:15;1.50;;;1.40;;
8893;SDS011;4483;48.622;9.230;2024-03-25T14:55:41;4.90;;;1.80;;
8893;SDS011;4483;48.622;9.230;2024-03-25T14:58:08;2.83;;;1.27;;
8893;SDS011;4483;48.622;9.230;2024-03-25T15:00:34;2.05;;;1.27;;
8893;SDS011;4483;48.622;9.230;2024-03-25T15:02:59;1.60;;;1.38;;
8893;SDS011;4483;48.622;9.230;2024-03-25T15:05:25;1.40;;;1.30;;
8893;SDS011;4483;48.622;9.230;2024-03-25T15:07:51;1.30;;;1.20;;
8893;SDS011;4483;48.622;9.230;2024-03-25T15:10:16;1.40;;;1.30;;